Huntsville, Canada
Current Conditions -  °F | °C
As of 7:00 AM on Thursday 27 Nov 2014 (Local Time) from CYQA Reporting Station
Overcast Overcast  
Wind Chill: 19°   Ceiling: 2300
Heat Index: 19°   Visibility: 9mi
Dew Point: 18°   Wind: 2mph
Humidity: 93%   Direction: 360°N
Pressure: 30.04"   Gusts: NA
Location:  45.33°N, 79.22°W
Report Text: CYQA 271200Z AUTO 36002KT 9SM OVC023 M07/M08 A3004 RMK SLP187
Loading
Personal Weather Stations






























Interactive Weather Map New forecast layout! Learn more

10-Day Weather Forecast

Advertisements
Track Severe Weather on mobile